sensor_id;sensor_type;location;lat;lon;timestamp;temperature;humidity
2226;DHT22;1119;48.288;8.726;2023-10-31T00:02:22;10.60;99.90
2226;DHT22;1119;48.288;8.726;2023-10-31T00:04:49;10.60;99.90
2226;DHT22;1119;48.288;8.726;2023-10-31T00:07:16;10.70;99.90
2226;DHT22;1119;48.288;8.726;2023-10-31T00:09:44;10.60;99.90
2226;DHT22;1119;48.288;8.726;2023-10-31T00:12:12;10.60;99.90
2226;DHT22;1119;48.288;8.726;2023-10-31T00:14:40;10.60;99.90
2226;DHT22;1119;48.288;8.726;2023-10-31T00:17:07;10.60;99.90
2226;DHT22;1119;48.288;8.726;2023-10-31T00:19:35;10.60;99.90
2226;DHT22;1119;48.288;8.726;2023-10-31T00:22:03;10.70;99.90
2226;DHT22;1119;48.288;8.726;2023-10-31T00:24:31;10.80;99.90
2226;DHT22;1119;48.288;8.726;2023-10-31T00:26:58;10.80;99.90
2226;DHT22;1119;48.288;8.726;2023-10-31T00:29:27;10.90;99.90
2226;DHT22;1119;48.288;8.726;2023-10-31T00:31:55;10.90;99.90
2226;DHT22;1119;48.288;8.726;2023-10-31T00:34:22;10.90;99.90
2226;DHT22;1119;48.288;8.726;2023-10-31T00:36:49;10.80;99.90
2226;DHT22;1119;48.288;8.726;2023-10-31T00:39:17;10.70;99.90
2226;DHT22;1119;48.288;8.726;2023-10-31T00:41:46;10.70;99.90
2226;DHT22;1119;48.288;8.726;2023-10-31T00:44:13;10.70;99.90
2226;DHT22;1119;48.288;8.726;2023-10-31T00:46:42;10.70;99.90
2226;DHT22;1119;48.288;8.726;2023-10-31T00:49:09;10.70;99.90
2226;DHT22;1119;48.288;8.726;2023-10-31T00:51:37;10.70;99.90
2226;DHT22;1119;48.288;8.726;2023-10-31T00:54:04;10.70;99.90
2226;DHT22;1119;48.288;8.726;2023-10-31T00:56:32;10.70;99.90
2226;DHT22;1119;48.288;8.726;2023-10-31T00:59:00;10.60;99.90
2226;DHT22;1119;48.288;8.726;2023-10-31T01:01:28;10.60;99.90
2226;DHT22;1119;48.288;8.726;2023-10-31T01:03:56;10.50;99.90
2226;DHT22;1119;48.288;8.726;2023-10-31T01:06:24;10.60;99.90
2226;DHT22;1119;48.288;8.726;2023-10-31T01:08:51;10.50;99.90
2226;DHT22;1119;48.288;8.726;2023-10-31T01:11:19;10.40;99.90
2226;DHT22;1119;48.288;8.726;2023-10-31T01:13:46;10.40;99.90
2226;DHT22;1119;48.288;8.726;2023-10-31T01:16:14;10.40;99.90
2226;DHT22;1119;48.288;8.726;2023-10-31T01:18:43;10.40;99.90
2226;DHT22;1119;48.288;8.726;2023-10-31T01:21:11;10.40;99.90
2226;DHT22;1119;48.288;8.726;2023-10-31T01:23:39;10.40;99.90
2226;DHT22;1119;48.288;8.726;2023-10-31T01:26:07;10.50;99.90
2226;DHT22;1119;48.288;8.726;2023-10-31T01:28:34;10.40;99.90
2226;DHT22;1119;48.288;8.726;2023-10-31T01:31:02;10.50;99.90
2226;DHT22;1119;48.288;8.726;2023-10-31T01:33:30;10.50;99.90
2226;DHT22;1119;48.288;8.726;2023-10-31T01:35:57;10.50;99.90
2226;DHT22;1119;48.288;8.726;2023-10-31T01:38:27;10.50;99.90
2226;DHT22;1119;48.288;8.726;2023-10-31T01:40:55;10.40;99.90
2226;DHT22;1119;48.288;8.726;2023-10-31T01:43:32;10.40;99.90
2226;DHT22;1119;48.288;8.726;2023-10-31T01:46:00;10.50;99.90
2226;DHT22;1119;48.288;8.726;2023-10-31T01:48:32;10.40;99.90
2226;DHT22;1119;48.288;8.726;2023-10-31T01:51:01;10.40;99.90
2226;DHT22;1119;48.288;8.726;2023-10-31T01:53:32;10.50;99.90
2226;DHT22;1119;48.288;8.726;2023-10-31T01:56:01;10.30;99.90
2226;DHT22;1119;48.288;8.726;2023-10-31T01:58:31;10.20;99.90
2226;DHT22;1119;48.288;8.726;2023-10-31T02:01:01;10.40;99.90
2226;DHT22;1119;48.288;8.726;2023-10-31T02:03:29;10.30;99.90
2226;DHT22;1119;48.288;8.726;2023-10-31T02:05:57;10.30;99.90
2226;DHT22;1119;48.288;8.726;2023-10-31T02:08:25;10.30;99.90
2226;DHT22;1119;48.288;8.726;2023-10-31T02:10:54;10.20;99.90
2226;DHT22;1119;48.288;8.726;2023-10-31T02:13:21;10.30;99.90
2226;DHT22;1119;48.288;8.726;2023-10-31T02:15:49;10.10;99.90
2226;DHT22;1119;48.288;8.726;2023-10-31T02:18:16;10.10;99.90
2226;DHT22;1119;48.288;8.726;2023-10-31T02:20:44;10.10;99.90
2226;DHT22;1119;48.288;8.726;2023-10-31T02:23:15;10.10;99.90
2226;DHT22;1119;48.288;8.726;2023-10-31T02:25:42;10.10;99.90
2226;DHT22;1119;48.288;8.726;2023-10-31T02:28:10;10.10;99.90
2226;DHT22;1119;48.288;8.726;2023-10-31T02:30:37;10.10;99.90
2226;DHT22;1119;48.288;8.726;2023-10-31T02:33:05;10.00;99.90
2226;DHT22;1119;48.288;8.726;2023-10-31T02:35:32;10.00;99.90
2226;DHT22;1119;48.288;8.726;2023-10-31T02:38:00;10.00;99.90
2226;DHT22;1119;48.288;8.726;2023-10-31T02:40:29;9.90;99.90
2226;DHT22;1119;48.288;8.726;2023-10-31T02:42:56;10.00;99.90
2226;DHT22;1119;48.288;8.726;2023-10-31T02:45:24;9.90;99.90
2226;DHT22;1119;48.288;8.726;2023-10-31T02:47:51;10.00;99.90
2226;DHT22;1119;48.288;8.726;2023-10-31T02:50:19;10.00;99.90
2226;DHT22;1119;48.288;8.726;2023-10-31T02:52:47;10.00;99.90
2226;DHT22;1119;48.288;8.726;2023-10-31T02:55:16;10.10;99.90
2226;DHT22;1119;48.288;8.726;2023-10-31T02:57:45;9.90;99.90
2226;DHT22;1119;48.288;8.726;2023-10-31T03:00:13;9.90;99.90
2226;DHT22;1119;48.288;8.726;2023-10-31T03:02:41;9.80;99.90
2226;DHT22;1119;48.288;8.726;2023-10-31T03:05:09;9.90;99.90
2226;DHT22;1119;48.288;8.726;2023-10-31T03:07:36;9.80;99.90
2226;DHT22;1119;48.288;8.726;2023-10-31T03:10:04;9.80;99.90
2226;DHT22;1119;48.288;8.726;2023-10-31T03:12:33;9.70;99.90
2226;DHT22;1119;48.288;8.726;2023-10-31T03:15:03;9.70;99.90
2226;DHT22;1119;48.288;8.726;2023-10-31T03:17:31;9.70;99.90
2226;DHT22;1119;48.288;8.726;2023-10-31T03:19:58;9.60;99.90
2226;DHT22;1119;48.288;8.726;2023-10-31T03:22:26;9.70;99.90
2226;DHT22;1119;48.288;8.726;2023-10-31T03:24:53;9.70;99.90
2226;DHT22;1119;48.288;8.726;2023-10-31T03:27:20;9.60;99.90
2226;DHT22;1119;48.288;8.726;2023-10-31T03:29:48;9.60;99.90
2226;DHT22;1119;48.288;8.726;2023-10-31T03:32:17;9.60;99.90
2226;DHT22;1119;48.288;8.726;2023-10-31T03:34:44;9.60;99.90
2226;DHT22;1119;48.288;8.726;2023-10-31T03:37:12;9.70;99.90
2226;DHT22;1119;48.288;8.726;2023-10-31T03:39:39;9.60;99.90
2226;DHT22;1119;48.288;8.726;2023-10-31T03:42:07;9.50;99.90
2226;DHT22;1119;48.288;8.726;2023-10-31T03:44:34;9.50;99.90
2226;DHT22;1119;48.288;8.726;2023-10-31T03:47:01;9.50;99.90
2226;DHT22;1119;48.288;8.726;2023-10-31T03:49:30;9.60;99.90
2226;DHT22;1119;48.288;8.726;2023-10-31T03:51:58;9.60;99.90
2226;DHT22;1119;48.288;8.726;2023-10-31T03:54:25;9.60;99.90
2226;DHT22;1119;48.288;8.726;2023-10-31T03:56:52;9.60;99.90
2226;DHT22;1119;48.288;8.726;2023-10-31T03:59:20;9.50;99.90
2226;DHT22;1119;48.288;8.726;2023-10-31T04:01:48;9.60;99.90
2226;DHT22;1119;48.288;8.726;2023-10-31T04:04:16;9.50;99.90
2226;DHT22;1119;48.288;8.726;2023-10-31T04:06:45;9.50;99.90
2226;DHT22;1119;48.288;8.726;2023-10-31T04:09:12;9.50;99.90
2226;DHT22;1119;48.288;8.726;2023-10-31T04:11:40;9.50;99.90
2226;DHT22;1119;48.288;8.726;2023-10-31T04:14:09;9.50;99.90
2226;DHT22;1119;48.288;8.726;2023-10-31T04:16:38;9.50;99.90
2226;DHT22;1119;48.288;8.726;2023-10-31T04:19:11;9.40;99.90
2226;DHT22;1119;48.288;8.726;2023-10-31T04:21:39;9.50;99.90
2226;DHT22;1119;48.288;8.726;2023-10-31T04:24:08;9.40;99.90
2226;DHT22;1119;48.288;8.726;2023-10-31T04:26:35;9.60;99.90
2226;DHT22;1119;48.288;8.726;2023-10-31T04:29:03;9.50;99.90
2226;DHT22;1119;48.288;8.726;2023-10-31T04:31:30;9.50;99.90
2226;DHT22;1119;48.288;8.726;2023-10-31T04:33:58;9.50;99.90
2226;DHT22;1119;48.288;8.726;2023-10-31T04:36:25;9.60;99.90
2226;DHT22;1119;48.288;8.726;2023-10-31T04:38:53;9.60;99.90
2226;DHT22;1119;48.288;8.726;2023-10-31T04:41:22;9.60;99.90
2226;DHT22;1119;48.288;8.726;2023-10-31T04:43:49;9.70;99.90
2226;DHT22;1119;48.288;8.726;2023-10-31T04:46:16;9.60;99.90
2226;DHT22;1119;48.288;8.726;2023-10-31T04:48:44;9.60;99.90
2226;DHT22;1119;48.288;8.726;2023-10-31T04:51:11;9.60;99.90
2226;DHT22;1119;48.288;8.726;2023-10-31T04:53:39;9.60;99.90
2226;DHT22;1119;48.288;8.726;2023-10-31T04:56:12;9.50;99.90
2226;DHT22;1119;48.288;8.726;2023-10-31T04:58:41;9.40;99.90
2226;DHT22;1119;48.288;8.726;2023-10-31T05:01:09;9.40;99.90
2226;DHT22;1119;48.288;8.726;2023-10-31T05:03:36;9.40;99.90
2226;DHT22;1119;48.288;8.726;2023-10-31T05:06:04;9.30;99.90
2226;DHT22;1119;48.288;8.726;2023-10-31T05:08:32;9.40;99.90
2226;DHT22;1119;48.288;8.726;2023-10-31T05:11:00;9.40;99.90
2226;DHT22;1119;48.288;8.726;2023-10-31T05:13:27;9.40;99.90
2226;DHT22;1119;48.288;8.726;2023-10-31T05:15:56;9.40;99.90
2226;DHT22;1119;48.288;8.726;2023-10-31T05:18:23;9.40;99.90
2226;DHT22;1119;48.288;8.726;2023-10-31T05:20:51;9.40;99.90
2226;DHT22;1119;48.288;8.726;2023-10-31T05:23:18;9.30;99.90
2226;DHT22;1119;48.288;8.726;2023-10-31T05:25:46;9.40;99.90
2226;DHT22;1119;48.288;8.726;2023-10-31T05:28:13;9.40;99.90
2226;DHT22;1119;48.288;8.726;2023-10-31T05:30:40;9.50;99.90
2226;DHT22;1119;48.288;8.726;2023-10-31T05:33:10;9.50;99.90
2226;DHT22;1119;48.288;8.726;2023-10-31T05:35:37;9.40;99.90
2226;DHT22;1119;48.288;8.726;2023-10-31T05:38:04;9.40;99.90
2226;DHT22;1119;48.288;8.726;2023-10-31T05:40:32;9.40;99.90
2226;DHT22;1119;48.288;8.726;2023-10-31T05:43:01;9.50;99.90
2226;DHT22;1119;48.288;8.726;2023-10-31T05:45:29;9.40;99.90
2226;DHT22;1119;48.288;8.726;2023-10-31T05:47:56;9.50;99.90
2226;DHT22;1119;48.288;8.726;2023-10-31T05:50:25;9.40;99.90
2226;DHT22;1119;48.288;8.726;2023-10-31T05:52:52;9.40;99.90
2226;DHT22;1119;48.288;8.726;2023-10-31T05:55:20;9.30;99.90
2226;DHT22;1119;48.288;8.726;2023-10-31T05:57:47;9.30;99.90
2226;DHT22;1119;48.288;8.726;2023-10-31T06:00:15;9.20;99.90
2226;DHT22;1119;48.288;8.726;2023-10-31T06:02:43;9.30;99.90
2226;DHT22;1119;48.288;8.726;2023-10-31T06:05:10;9.20;99.90
2226;DHT22;1119;48.288;8.726;2023-10-31T06:07:39;9.20;99.90
2226;DHT22;1119;48.288;8.726;2023-10-31T06:10:07;9.20;99.90
2226;DHT22;1119;48.288;8.726;2023-10-31T06:12:35;9.20;99.90
2226;DHT22;1119;48.288;8.726;2023-10-31T06:15:03;9.20;99.90
2226;DHT22;1119;48.288;8.726;2023-10-31T06:17:31;9.10;99.90
2226;DHT22;1119;48.288;8.726;2023-10-31T06:20:01;9.10;99.90
2226;DHT22;1119;48.288;8.726;2023-10-31T06:22:28;9.10;99.90
2226;DHT22;1119;48.288;8.726;2023-10-31T06:24:58;9.10;99.90
2226;DHT22;1119;48.288;8.726;2023-10-31T06:27:25;9.00;99.90
2226;DHT22;1119;48.288;8.726;2023-10-31T06:29:52;8.90;99.90
2226;DHT22;1119;48.288;8.726;2023-10-31T06:32:21;9.00;99.90
2226;DHT22;1119;48.288;8.726;2023-10-31T06:34:48;9.00;99.90
2226;DHT22;1119;48.288;8.726;2023-10-31T06:37:16;9.00;99.90
2226;DHT22;1119;48.288;8.726;2023-10-31T06:39:43;8.90;99.90
2226;DHT22;1119;48.288;8.726;2023-10-31T06:42:12;8.90;99.90
2226;DHT22;1119;48.288;8.726;2023-10-31T06:44:39;9.00;99.90
2226;DHT22;1119;48.288;8.726;2023-10-31T06:47:06;8.90;99.90
2226;DHT22;1119;48.288;8.726;2023-10-31T06:49:34;8.90;99.90
2226;DHT22;1119;48.288;8.726;2023-10-31T06:52:03;8.90;99.90
2226;DHT22;1119;48.288;8.726;2023-10-31T06:54:31;8.90;99.90
2226;DHT22;1119;48.288;8.726;2023-10-31T06:57:00;8.90;99.90
2226;DHT22;1119;48.288;8.726;2023-10-31T06:59:29;8.90;99.90
2226;DHT22;1119;48.288;8.726;2023-10-31T07:01:57;9.00;99.90
2226;DHT22;1119;48.288;8.726;2023-10-31T07:04:25;9.00;99.90
2226;DHT22;1119;48.288;8.726;2023-10-31T07:06:53;9.10;99.90
2226;DHT22;1119;48.288;8.726;2023-10-31T07:09:23;9.50;99.90
2226;DHT22;1119;48.288;8.726;2023-10-31T07:11:50;9.30;99.90
2226;DHT22;1119;48.288;8.726;2023-10-31T07:14:18;9.60;99.90
2226;DHT22;1119;48.288;8.726;2023-10-31T07:16:47;9.40;99.90
2226;DHT22;1119;48.288;8.726;2023-10-31T07:19:14;9.30;99.90
2226;DHT22;1119;48.288;8.726;2023-10-31T07:21:42;9.30;99.90
2226;DHT22;1119;48.288;8.726;2023-10-31T07:24:09;9.30;99.90
2226;DHT22;1119;48.288;8.726;2023-10-31T07:26:37;9.20;99.90
2226;DHT22;1119;48.288;8.726;2023-10-31T07:29:04;9.30;99.90
2226;DHT22;1119;48.288;8.726;2023-10-31T07:31:32;9.20;99.90
2226;DHT22;1119;48.288;8.726;2023-10-31T07:34:07;9.20;99.90
2226;DHT22;1119;48.288;8.726;2023-10-31T07:36:37;9.20;99.90
2226;DHT22;1119;48.288;8.726;2023-10-31T07:39:05;9.20;99.90
2226;DHT22;1119;48.288;8.726;2023-10-31T07:41:32;9.30;99.90
2226;DHT22;1119;48.288;8.726;2023-10-31T07:44:01;9.30;99.90
2226;DHT22;1119;48.288;8.726;2023-10-31T07:46:29;9.20;99.90
2226;DHT22;1119;48.288;8.726;2023-10-31T07:48:56;9.20;99.90
2226;DHT22;1119;48.288;8.726;2023-10-31T07:51:25;9.30;99.90
2226;DHT22;1119;48.288;8.726;2023-10-31T07:53:52;9.30;99.90
2226;DHT22;1119;48.288;8.726;2023-10-31T07:56:21;9.40;99.90
2226;DHT22;1119;48.288;8.726;2023-10-31T07:58:51;9.40;99.90
2226;DHT22;1119;48.288;8.726;2023-10-31T08:01:20;9.50;99.90
2226;DHT22;1119;48.288;8.726;2023-10-31T08:03:49;9.50;99.90
2226;DHT22;1119;48.288;8.726;2023-10-31T08:06:16;9.50;99.90
2226;DHT22;1119;48.288;8.726;2023-10-31T08:08:45;9.60;99.90
2226;DHT22;1119;48.288;8.726;2023-10-31T08:11:13;9.60;99.90
2226;DHT22;1119;48.288;8.726;2023-10-31T08:13:40;9.80;99.90
2226;DHT22;1119;48.288;8.726;2023-10-31T08:16:08;9.60;99.90
2226;DHT22;1119;48.288;8.726;2023-10-31T08:18:36;9.60;99.90
2226;DHT22;1119;48.288;8.726;2023-10-31T08:21:05;9.70;99.90
2226;DHT22;1119;48.288;8.726;2023-10-31T08:23:32;9.70;99.90
2226;DHT22;1119;48.288;8.726;2023-10-31T08:26:03;9.70;99.90
2226;DHT22;1119;48.288;8.726;2023-10-31T08:28:30;9.80;99.90
2226;DHT22;1119;48.288;8.726;2023-10-31T08:30:58;9.80;99.90
2226;DHT22;1119;48.288;8.726;2023-10-31T08:33:28;9.80;99.90
2226;DHT22;1119;48.288;8.726;2023-10-31T08:36:03;9.60;99.90
2226;DHT22;1119;48.288;8.726;2023-10-31T08:38:39;9.90;99.90
2226;DHT22;1119;48.288;8.726;2023-10-31T08:41:08;9.90;99.90
2226;DHT22;1119;48.288;8.726;2023-10-31T08:43:35;10.00;99.90
2226;DHT22;1119;48.288;8.726;2023-10-31T08:46:03;10.10;99.90
2226;DHT22;1119;48.288;8.726;2023-10-31T08:48:30;10.10;99.90
2226;DHT22;1119;48.288;8.726;2023-10-31T08:50:59;10.20;99.90
2226;DHT22;1119;48.288;8.726;2023-10-31T08:53:26;10.20;99.90
2226;DHT22;1119;48.288;8.726;2023-10-31T08:55:54;10.20;99.90
2226;DHT22;1119;48.288;8.726;2023-10-31T08:58:23;10.30;99.90
2226;DHT22;1119;48.288;8.726;2023-10-31T09:00:51;10.30;99.90
2226;DHT22;1119;48.288;8.726;2023-10-31T09:03:18;10.40;99.90
2226;DHT22;1119;48.288;8.726;2023-10-31T09:05:45;10.40;99.90
2226;DHT22;1119;48.288;8.726;2023-10-31T09:08:13;10.50;99.90
2226;DHT22;1119;48.288;8.726;2023-10-31T09:10:40;10.50;99.90
2226;DHT22;1119;48.288;8.726;2023-10-31T09:13:14;10.50;99.90
2226;DHT22;1119;48.288;8.726;2023-10-31T09:15:43;10.60;99.90
2226;DHT22;1119;48.288;8.726;2023-10-31T09:18:11;10.70;99.90
2226;DHT22;1119;48.288;8.726;2023-10-31T09:20:38;10.80;99.90
2226;DHT22;1119;48.288;8.726;2023-10-31T09:23:06;10.80;99.90
2226;DHT22;1119;48.288;8.726;2023-10-31T09:25:33;10.90;99.90
2226;DHT22;1119;48.288;8.726;2023-10-31T09:28:03;10.90;99.90
2226;DHT22;1119;48.288;8.726;2023-10-31T09:30:30;11.00;99.90
2226;DHT22;1119;48.288;8.726;2023-10-31T09:32:59;11.00;99.90
2226;DHT22;1119;48.288;8.726;2023-10-31T09:35:26;10.90;99.90
2226;DHT22;1119;48.288;8.726;2023-10-31T09:37:54;10.90;99.90
2226;DHT22;1119;48.288;8.726;2023-10-31T09:40:22;10.90;99.90
2226;DHT22;1119;48.288;8.726;2023-10-31T09:42:50;10.90;99.90
2226;DHT22;1119;48.288;8.726;2023-10-31T09:45:17;11.00;99.90
2226;DHT22;1119;48.288;8.726;2023-10-31T09:47:48;11.00;99.90
2226;DHT22;1119;48.288;8.726;2023-10-31T09:50:17;10.90;99.90
2226;DHT22;1119;48.288;8.726;2023-10-31T09:52:45;10.90;99.90
2226;DHT22;1119;48.288;8.726;2023-10-31T09:55:15;10.90;99.90
2226;DHT22;1119;48.288;8.726;2023-10-31T09:57:43;10.90;99.90
2226;DHT22;1119;48.288;8.726;2023-10-31T10:00:12;10.80;99.90
2226;DHT22;1119;48.288;8.726;2023-10-31T10:02:40;10.80;99.90
2226;DHT22;1119;48.288;8.726;2023-10-31T10:05:09;10.80;99.90
2226;DHT22;1119;48.288;8.726;2023-10-31T10:07:41;10.90;99.90
2226;DHT22;1119;48.288;8.726;2023-10-31T10:10:11;10.90;99.90
2226;DHT22;1119;48.288;8.726;2023-10-31T10:12:41;10.90;99.90
2226;DHT22;1119;48.288;8.726;2023-10-31T10:15:10;11.00;99.90
2226;DHT22;1119;48.288;8.726;2023-10-31T10:17:38;11.00;99.90
2226;DHT22;1119;48.288;8.726;2023-10-31T10:20:08;11.00;99.90
2226;DHT22;1119;48.288;8.726;2023-10-31T10:22:39;11.00;99.90
2226;DHT22;1119;48.288;8.726;2023-10-31T10:25:08;11.00;99.90
2226;DHT22;1119;48.288;8.726;2023-10-31T10:27:38;11.00;99.90
2226;DHT22;1119;48.288;8.726;2023-10-31T10:30:08;11.00;99.90
2226;DHT22;1119;48.288;8.726;2023-10-31T10:32:36;11.10;99.90
2226;DHT22;1119;48.288;8.726;2023-10-31T10:35:06;11.20;99.90
2226;DHT22;1119;48.288;8.726;2023-10-31T10:37:38;11.30;99.90
2226;DHT22;1119;48.288;8.726;2023-10-31T10:40:07;11.40;99.90
2226;DHT22;1119;48.288;8.726;2023-10-31T10:42:42;11.50;99.90
2226;DHT22;1119;48.288;8.726;2023-10-31T10:45:13;11.70;99.90
2226;DHT22;1119;48.288;8.726;2023-10-31T10:47:46;11.80;99.90
2226;DHT22;1119;48.288;8.726;2023-10-31T10:50:17;11.90;99.90
2226;DHT22;1119;48.288;8.726;2023-10-31T10:52:49;12.10;99.90
2226;DHT22;1119;48.288;8.726;2023-10-31T10:55:24;12.10;99.90
2226;DHT22;1119;48.288;8.726;2023-10-31T10:58:00;12.20;99.90
2226;DHT22;1119;48.288;8.726;2023-10-31T11:00:28;12.20;99.90
2226;DHT22;1119;48.288;8.726;2023-10-31T11:02:56;12.10;99.90
2226;DHT22;1119;48.288;8.726;2023-10-31T11:05:24;12.10;99.90
2226;DHT22;1119;48.288;8.726;2023-10-31T11:07:54;12.10;99.90
2226;DHT22;1119;48.288;8.726;2023-10-31T11:10:25;12.10;99.90
2226;DHT22;1119;48.288;8.726;2023-10-31T11:12:53;12.10;99.90
2226;DHT22;1119;48.288;8.726;2023-10-31T11:15:23;12.10;99.90
2226;DHT22;1119;48.288;8.726;2023-10-31T11:17:52;12.10;99.90
2226;DHT22;1119;48.288;8.726;2023-10-31T11:20:20;12.20;99.90
2226;DHT22;1119;48.288;8.726;2023-10-31T11:22:48;12.30;99.90
2226;DHT22;1119;48.288;8.726;2023-10-31T11:25:23;12.50;99.90
2226;DHT22;1119;48.288;8.726;2023-10-31T11:27:52;12.40;99.90
2226;DHT22;1119;48.288;8.726;2023-10-31T11:30:22;12.30;99.90
2226;DHT22;1119;48.288;8.726;2023-10-31T11:32:55;12.30;99.90
2226;DHT22;1119;48.288;8.726;2023-10-31T11:35:25;12.30;99.90
2226;DHT22;1119;48.288;8.726;2023-10-31T11:38:03;12.30;99.90
2226;DHT22;1119;48.288;8.726;2023-10-31T11:40:32;12.40;99.90
2226;DHT22;1119;48.288;8.726;2023-10-31T11:43:02;12.50;99.90
2226;DHT22;1119;48.288;8.726;2023-10-31T11:45:34;12.40;99.90
2226;DHT22;1119;48.288;8.726;2023-10-31T11:48:03;12.50;99.90
2226;DHT22;1119;48.288;8.726;2023-10-31T11:50:30;12.60;99.90
2226;DHT22;1119;48.288;8.726;2023-10-31T11:52:59;12.70;99.90
2226;DHT22;1119;48.288;8.726;2023-10-31T11:55:34;12.80;99.90
2226;DHT22;1119;48.288;8.726;2023-10-31T11:58:16;12.80;99.90
2226;DHT22;1119;48.288;8.726;2023-10-31T12:00:45;12.80;99.90
2226;DHT22;1119;48.288;8.726;2023-10-31T12:03:15;12.90;99.90
2226;DHT22;1119;48.288;8.726;2023-10-31T12:05:52;13.00;99.90
2226;DHT22;1119;48.288;8.726;2023-10-31T12:08:32;13.10;99.90
2226;DHT22;1119;48.288;8.726;2023-10-31T12:11:06;13.10;99.90
2226;DHT22;1119;48.288;8.726;2023-10-31T12:13:36;13.10;99.90
2226;DHT22;1119;48.288;8.726;2023-10-31T12:16:05;13.10;99.90
2226;DHT22;1119;48.288;8.726;2023-10-31T12:18:33;13.10;99.90
2226;DHT22;1119;48.288;8.726;2023-10-31T12:21:01;13.10;99.90
2226;DHT22;1119;48.288;8.726;2023-10-31T12:23:31;13.00;99.90
2226;DHT22;1119;48.288;8.726;2023-10-31T12:25:59;12.90;99.90
2226;DHT22;1119;48.288;8.726;2023-10-31T12:28:27;12.70;99.90
2226;DHT22;1119;48.288;8.726;2023-10-31T12:30:55;12.50;99.90
2226;DHT22;1119;48.288;8.726;2023-10-31T12:33:26;12.40;99.90
2226;DHT22;1119;48.288;8.726;2023-10-31T12:35:58;12.40;99.90
2226;DHT22;1119;48.288;8.726;2023-10-31T12:38:26;12.30;99.90
2226;DHT22;1119;48.288;8.726;2023-10-31T12:40:55;12.30;99.90
2226;DHT22;1119;48.288;8.726;2023-10-31T12:43:24;12.20;99.90
2226;DHT22;1119;48.288;8.726;2023-10-31T12:45:53;12.10;99.90
2226;DHT22;1119;48.288;8.726;2023-10-31T12:48:24;12.10;99.90
2226;DHT22;1119;48.288;8.726;2023-10-31T12:51:06;12.00;99.90
2226;DHT22;1119;48.288;8.726;2023-10-31T12:53:34;12.00;99.90
2226;DHT22;1119;48.288;8.726;2023-10-31T12:56:04;12.00;99.90
2226;DHT22;1119;48.288;8.726;2023-10-31T12:58:31;11.90;99.90
2226;DHT22;1119;48.288;8.726;2023-10-31T13:00:59;11.90;99.90
2226;DHT22;1119;48.288;8.726;2023-10-31T13:03:27;11.90;99.90
2226;DHT22;1119;48.288;8.726;2023-10-31T13:05:54;11.90;99.90
2226;DHT22;1119;48.288;8.726;2023-10-31T13:08:22;11.90;99.90
2226;DHT22;1119;48.288;8.726;2023-10-31T13:10:50;11.90;99.90
2226;DHT22;1119;48.288;8.726;2023-10-31T13:13:20;11.90;99.90
2226;DHT22;1119;48.288;8.726;2023-10-31T13:15:48;11.80;99.90
2226;DHT22;1119;48.288;8.726;2023-10-31T13:18:15;11.80;99.90
2226;DHT22;1119;48.288;8.726;2023-10-31T13:20:43;11.70;99.90
2226;DHT22;1119;48.288;8.726;2023-10-31T13:23:10;11.70;99.90
2226;DHT22;1119;48.288;8.726;2023-10-31T13:25:38;11.80;99.90
2226;DHT22;1119;48.288;8.726;2023-10-31T13:28:05;11.70;99.90
2226;DHT22;1119;48.288;8.726;2023-10-31T13:30:36;11.60;99.90
2226;DHT22;1119;48.288;8.726;2023-10-31T13:33:04;11.60;99.90
2226;DHT22;1119;48.288;8.726;2023-10-31T13:35:31;11.50;99.90
2226;DHT22;1119;48.288;8.726;2023-10-31T13:37:59;11.60;99.90
2226;DHT22;1119;48.288;8.726;2023-10-31T13:40:27;11.70;99.90
2226;DHT22;1119;48.288;8.726;2023-10-31T13:42:55;11.80;99.90
2226;DHT22;1119;48.288;8.726;2023-10-31T13:45:22;11.90;99.90
2226;DHT22;1119;48.288;8.726;2023-10-31T13:47:51;11.90;99.90
2226;DHT22;1119;48.288;8.726;2023-10-31T13:50:19;12.10;99.90
2226;DHT22;1119;48.288;8.726;2023-10-31T13:52:46;12.10;99.90
2226;DHT22;1119;48.288;8.726;2023-10-31T13:55:15;12.20;99.90
2226;DHT22;1119;48.288;8.726;2023-10-31T13:57:43;12.10;99.90
2226;DHT22;1119;48.288;8.726;2023-10-31T14:00:11;12.10;99.90
2226;DHT22;1119;48.288;8.726;2023-10-31T14:02:39;12.10;99.90
2226;DHT22;1119;48.288;8.726;2023-10-31T14:05:09;12.10;99.90
2226;DHT22;1119;48.288;8.726;2023-10-31T14:07:37;12.00;99.90
2226;DHT22;1119;48.288;8.726;2023-10-31T14:10:08;12.00;99.90
2226;DHT22;1119;48.288;8.726;2023-10-31T14:12:35;11.90;99.90
2226;DHT22;1119;48.288;8.726;2023-10-31T14:15:03;11.90;99.90
2226;DHT22;1119;48.288;8.726;2023-10-31T14:17:32;11.90;99.90
2226;DHT22;1119;48.288;8.726;2023-10-31T14:19:59;11.80;99.90
2226;DHT22;1119;48.288;8.726;2023-10-31T14:22:31;11.80;99.90
2226;DHT22;1119;48.288;8.726;2023-10-31T14:24:58;11.80;99.90
2226;DHT22;1119;48.288;8.726;2023-10-31T14:27:25;11.80;99.90
2226;DHT22;1119;48.288;8.726;2023-10-31T14:29:53;11.80;99.90
2226;DHT22;1119;48.288;8.726;2023-10-31T14:32:20;11.70;99.90
2226;DHT22;1119;48.288;8.726;2023-10-31T14:34:50;11.80;99.90
2226;DHT22;1119;48.288;8.726;2023-10-31T14:37:17;11.80;99.90
2226;DHT22;1119;48.288;8.726;2023-10-31T14:39:46;11.80;99.90
2226;DHT22;1119;48.288;8.726;2023-10-31T14:42:14;11.80;99.90
2226;DHT22;1119;48.288;8.726;2023-10-31T14:44:41;11.70;99.90
2226;DHT22;1119;48.288;8.726;2023-10-31T14:47:09;11.70;99.90
2226;DHT22;1119;48.288;8.726;2023-10-31T14:49:36;11.70;99.90
2226;DHT22;1119;48.288;8.726;2023-10-31T14:52:04;11.70;99.90
2226;DHT22;1119;48.288;8.726;2023-10-31T14:54:32;11.60;99.90
2226;DHT22;1119;48.288;8.726;2023-10-31T14:57:01;11.60;99.90
2226;DHT22;1119;48.288;8.726;2023-10-31T14:59:29;11.50;99.90
2226;DHT22;1119;48.288;8.726;2023-10-31T15:01:56;11.50;99.90
2226;DHT22;1119;48.288;8.726;2023-10-31T15:04:23;11.50;99.90
2226;DHT22;1119;48.288;8.726;2023-10-31T15:06:51;11.50;99.90
2226;DHT22;1119;48.288;8.726;2023-10-31T15:09:18;11.40;99.90
2226;DHT22;1119;48.288;8.726;2023-10-31T15:11:46;11.40;99.90
2226;DHT22;1119;48.288;8.726;2023-10-31T15:14:15;11.30;99.90
2226;DHT22;1119;48.288;8.726;2023-10-31T15:16:42;11.40;99.90
2226;DHT22;1119;48.288;8.726;2023-10-31T15:19:09;11.30;99.90
2226;DHT22;1119;48.288;8.726;2023-10-31T15:21:37;11.30;99.90
2226;DHT22;1119;48.288;8.726;2023-10-31T15:24:05;11.30;99.90
2226;DHT22;1119;48.288;8.726;2023-10-31T15:26:36;11.30;99.90
2226;DHT22;1119;48.288;8.726;2023-10-31T15:29:05;11.30;99.90
2226;DHT22;1119;48.288;8.726;2023-10-31T15:31:35;11.30;99.90
2226;DHT22;1119;48.288;8.726;2023-10-31T15:34:02;11.30;99.90
2226;DHT22;1119;48.288;8.726;2023-10-31T15:36:30;11.30;99.90
2226;DHT22;1119;48.288;8.726;2023-10-31T15:38:57;11.30;99.90
2226;DHT22;1119;48.288;8.726;2023-10-31T15:41:25;11.40;99.90
2226;DHT22;1119;48.288;8.726;2023-10-31T15:43:52;11.40;99.90
2226;DHT22;1119;48.288;8.726;2023-10-31T15:46:20;11.50;99.90
2226;DHT22;1119;48.288;8.726;2023-10-31T15:48:49;11.50;99.90
2226;DHT22;1119;48.288;8.726;2023-10-31T15:51:16;11.50;99.90
2226;DHT22;1119;48.288;8.726;2023-10-31T15:53:44;11.40;99.90
2226;DHT22;1119;48.288;8.726;2023-10-31T15:56:11;11.50;99.90
2226;DHT22;1119;48.288;8.726;2023-10-31T15:58:39;11.50;99.90
2226;DHT22;1119;48.288;8.726;2023-10-31T16:01:06;11.40;99.90
2226;DHT22;1119;48.288;8.726;2023-10-31T16:03:33;11.40;99.90
2226;DHT22;1119;48.288;8.726;2023-10-31T16:06:03;11.40;99.90
2226;DHT22;1119;48.288;8.726;2023-10-31T16:08:31;11.40;99.90
2226;DHT22;1119;48.288;8.726;2023-10-31T16:10:58;11.50;99.90
2226;DHT22;1119;48.288;8.726;2023-10-31T16:13:26;11.30;99.90
2226;DHT22;1119;48.288;8.726;2023-10-31T16:15:53;11.30;99.90